createdAt,value
2023-03-26T00:01:23.909Z,0.50
2023-03-26T00:03:55.330Z,0.70
2023-03-26T00:06:37.629Z,0.70
2023-03-26T00:09:08.222Z,0.65
2023-03-26T00:11:35.945Z,0.50
2023-03-26T00:14:03.793Z,0.40
2023-03-26T00:16:32.118Z,0.22
2023-03-26T00:19:00.202Z,0.52
2023-03-26T00:21:30.277Z,0.30
2023-03-26T00:24:01.207Z,0.43
2023-03-26T00:26:31.183Z,0.70
2023-03-26T00:29:00.321Z,0.40
2023-03-26T00:31:27.980Z,0.50
2023-03-26T00:33:55.780Z,0.32
2023-03-26T00:36:27.745Z,0.40
2023-03-26T00:38:55.520Z,0.50
2023-03-26T00:41:26.113Z,0.62
2023-03-26T00:43:57.928Z,0.65
2023-03-26T00:46:26.941Z,0.50
2023-03-26T00:48:58.792Z,0.43
2023-03-26T00:51:27.837Z,0.40
2023-03-26T00:53:55.696Z,0.43
2023-03-26T00:56:23.060Z,0.68
2023-03-26T00:58:50.588Z,0.55
2023-03-26T01:01:27.324Z,0.62
2023-03-26T01:04:08.266Z,0.20
2023-03-26T01:06:41.515Z,0.60
2023-03-26T01:09:17.728Z,0.70
2023-03-26T01:11:46.609Z,0.40
2023-03-26T01:14:19.626Z,0.35
2023-03-26T01:16:56.304Z,0.47
2023-03-26T01:19:49.003Z,0.52
2023-03-26T01:22:19.552Z,0.75
2023-03-26T01:24:53.071Z,0.47
2023-03-26T01:27:33.696Z,0.40
2023-03-26T01:30:29.305Z,0.40
2023-03-26T01:33:43.968Z,0.60
2023-03-26T01:36:23.683Z,0.40
2023-03-26T01:39:22.087Z,0.43
2023-03-26T01:41:51.724Z,0.47
2023-03-26T01:44:42.924Z,0.70
2023-03-26T01:47:11.122Z,0.20
2023-03-26T01:49:38.670Z,0.30
2023-03-26T01:52:20.859Z,0.30
2023-03-26T01:54:48.831Z,0.50
2023-03-26T01:57:37.894Z,0.20
2023-03-26T02:00:15.513Z,0.75
2023-03-26T02:03:01.357Z,1.10
2023-03-26T02:05:33.586Z,1.08
2023-03-26T02:08:21.131Z,1.05
2023-03-26T02:10:57.565Z,0.80
2023-03-26T02:13:25.896Z,0.50
2023-03-26T02:16:01.743Z,0.55
2023-03-26T02:18:41.468Z,0.73
2023-03-26T02:21:22.741Z,0.50
2023-03-26T02:23:58.111Z,0.50
2023-03-26T02:26:25.898Z,0.62
2023-03-26T02:28:53.662Z,0.55
2023-03-26T02:31:21.956Z,0.55
2023-03-26T02:33:49.616Z,0.30
2023-03-26T02:36:19.631Z,0.57
2023-03-26T02:38:47.974Z,0.65
2023-03-26T02:41:15.426Z,0.43
2023-03-26T02:43:44.671Z,0.65
2023-03-26T02:46:13.418Z,0.50
2023-03-26T02:48:44.058Z,0.30
2023-03-26T02:51:11.892Z,0.35
2023-03-26T02:53:41.431Z,0.50
2023-03-26T02:56:11.056Z,0.60
2023-03-26T02:58:39.735Z,0.40
2023-03-26T03:01:08.051Z,0.60
2023-03-26T03:03:36.468Z,0.80
2023-03-26T03:06:05.392Z,1.27
2023-03-26T03:08:34.153Z,1.33
2023-03-26T03:11:10.462Z,1.05
2023-03-26T03:13:38.238Z,1.12
2023-03-26T03:16:05.969Z,1.62
2023-03-26T03:18:33.280Z,1.00
2023-03-26T03:21:01.461Z,1.23
2023-03-26T03:23:28.934Z,1.23
2023-03-26T03:25:58.004Z,0.73
2023-03-26T03:28:25.808Z,1.25
2023-03-26T03:30:53.409Z,0.60
2023-03-26T03:33:21.459Z,0.88
2023-03-26T03:35:50.204Z,1.30
2023-03-26T03:38:17.989Z,0.57
2023-03-26T03:40:46.429Z,0.65
2023-03-26T03:43:14.295Z,0.93
2023-03-26T03:45:42.169Z,0.73
2023-03-26T03:48:09.623Z,1.23
2023-03-26T03:50:37.587Z,1.02
2023-03-26T03:53:05.828Z,0.80
2023-03-26T03:55:34.445Z,0.80
2023-03-26T03:58:02.079Z,0.80
2023-03-26T04:00:30.752Z,0.80
2023-03-26T04:02:59.202Z,0.85
2023-03-26T04:05:26.945Z,0.80
2023-03-26T04:07:54.087Z,0.80
2023-03-26T04:10:23.769Z,0.82
2023-03-26T04:12:54.272Z,1.55
2023-03-26T04:15:22.071Z,1.23
2023-03-26T04:17:49.616Z,1.33
2023-03-26T04:20:17.286Z,1.15
2023-03-26T04:22:44.631Z,1.40
2023-03-26T04:25:13.454Z,1.55
2023-03-26T04:27:44.144Z,1.92
2023-03-26T04:30:15.762Z,1.77
2023-03-26T04:32:44.823Z,1.80
2023-03-26T04:35:16.707Z,1.80
2023-03-26T04:37:46.186Z,2.35
2023-03-26T04:40:21.992Z,1.60
2023-03-26T04:42:49.617Z,1.58
2023-03-26T04:45:22.729Z,1.35
2023-03-26T04:47:53.009Z,2.20
2023-03-26T04:50:21.031Z,2.03
2023-03-26T04:52:48.313Z,1.70
2023-03-26T04:55:28.281Z,2.12
2023-03-26T04:58:00.204Z,1.85
2023-03-26T05:00:29.177Z,1.80
2023-03-26T05:03:01.698Z,1.45
2023-03-26T05:05:29.407Z,2.00
2023-03-26T05:07:57.923Z,1.75
2023-03-26T05:10:25.418Z,1.70
2023-03-26T05:12:53.009Z,1.80
2023-03-26T05:15:21.719Z,1.58
2023-03-26T05:17:50.238Z,1.80
2023-03-26T05:20:20.866Z,5.75
2023-03-26T05:22:49.619Z,2.97
2023-03-26T05:25:17.871Z,3.33
2023-03-26T05:27:45.996Z,2.12
2023-03-26T05:30:16.190Z,2.28
2023-03-26T05:32:44.185Z,2.45
2023-03-26T05:35:12.718Z,1.77
2023-03-26T05:37:40.599Z,4.00
2023-03-26T05:40:11.773Z,2.83
2023-03-26T05:42:41.811Z,2.42
2023-03-26T05:45:11.745Z,2.10
2023-03-26T05:47:39.075Z,1.87
2023-03-26T05:50:07.853Z,1.60
2023-03-26T05:52:36.027Z,1.60
2023-03-26T05:55:08.337Z,2.40
2023-03-26T05:57:47.699Z,2.22
2023-03-26T06:00:18.571Z,2.22
2023-03-26T06:02:46.975Z,2.10
2023-03-26T06:05:16.965Z,1.73
2023-03-26T06:07:44.975Z,1.25
2023-03-26T06:10:18.012Z,1.42
2023-03-26T06:12:46.424Z,5.75
2023-03-26T06:15:13.742Z,1.55
2023-03-26T06:17:41.169Z,1.33
2023-03-26T06:20:10.528Z,1.60
2023-03-26T06:22:38.066Z,1.92
2023-03-26T06:25:08.254Z,1.65
2023-03-26T06:27:36.312Z,1.27
2023-03-26T06:30:04.348Z,1.30
2023-03-26T06:32:32.616Z,1.55
2023-03-26T06:35:00.882Z,1.25
2023-03-26T06:37:28.473Z,1.05
2023-03-26T06:39:56.260Z,1.33
2023-03-26T06:42:32.056Z,1.60
2023-03-26T06:45:11.607Z,1.37
2023-03-26T06:47:44.388Z,1.15
2023-03-26T06:50:13.271Z,0.88
2023-03-26T06:52:43.028Z,0.98
2023-03-26T06:55:11.129Z,1.25
2023-03-26T06:57:39.277Z,1.30
2023-03-26T07:00:08.867Z,1.77
2023-03-26T07:02:40.651Z,2.50
2023-03-26T07:05:22.844Z,2.10
2023-03-26T07:08:00.715Z,2.03
2023-03-26T07:10:45.009Z,2.00
2023-03-26T07:13:12.854Z,1.90
2023-03-26T07:15:49.111Z,1.70
2023-03-26T07:18:16.661Z,2.55
2023-03-26T07:20:46.164Z,2.10
2023-03-26T07:23:15.655Z,2.08
2023-03-26T07:25:43.733Z,2.05
2023-03-26T07:28:12.376Z,2.10
2023-03-26T07:31:07.513Z,1.98
2023-03-26T07:33:48.852Z,2.10
2023-03-26T07:36:23.548Z,1.98
2023-03-26T07:39:13.044Z,1.80
2023-03-26T07:41:46.468Z,1.92
2023-03-26T07:44:26.028Z,1.87
2023-03-26T07:46:54.070Z,2.65
2023-03-26T07:49:22.394Z,2.30
2023-03-26T07:51:54.277Z,1.58
2023-03-26T07:54:22.163Z,2.95
2023-03-26T07:56:58.592Z,2.45
2023-03-26T07:59:49.281Z,2.00
2023-03-26T08:02:45.090Z,2.20
2023-03-26T08:05:39.908Z,1.48
2023-03-26T08:08:46.509Z,1.80
2023-03-26T08:11:56.064Z,2.03
2023-03-26T08:14:26.386Z,2.90
2023-03-26T08:17:09.161Z,2.22
2023-03-26T08:19:40.921Z,3.80
2023-03-26T08:22:15.604Z,1.83
2023-03-26T08:25:04.667Z,1.17
2023-03-26T08:27:38.742Z,2.37
2023-03-26T08:30:08.974Z,2.12
2023-03-26T08:35:05.089Z,1.90
2023-03-26T08:37:32.407Z,2.05
2023-03-26T08:40:19.877Z,2.22
2023-03-26T08:43:10.582Z,3.15
2023-03-26T08:48:37.562Z,1.50
2023-03-26T08:51:15.356Z,1.60
2023-03-26T08:53:50.031Z,2.12
2023-03-26T08:56:41.728Z,1.27
2023-03-26T08:59:28.166Z,3.62
2023-03-26T09:02:05.737Z,5.87
2023-03-26T09:05:11.266Z,3.45
2023-03-26T09:08:30.136Z,7.15
2023-03-26T09:11:04.618Z,2.95
2023-03-26T09:13:53.519Z,1.73
2023-03-26T09:16:27.387Z,1.77
2023-03-26T09:19:19.851Z,2.60
2023-03-26T09:21:47.581Z,4.57
2023-03-26T09:24:27.801Z,1.90
2023-03-26T09:27:26.155Z,1.48
2023-03-26T09:30:06.852Z,1.48
2023-03-26T09:32:43.335Z,3.03
2023-03-26T09:35:24.910Z,2.60
2023-03-26T09:37:57.108Z,1.83
2023-03-26T09:40:51.239Z,1.40
2023-03-26T09:43:36.304Z,2.05
2023-03-26T09:46:06.804Z,1.23
2023-03-26T09:48:37.721Z,1.10
2023-03-26T09:51:26.131Z,2.12
2023-03-26T09:54:14.651Z,1.23
2023-03-26T09:56:58.148Z,1.48
2023-03-26T09:59:28.885Z,1.77
2023-03-26T10:02:18.524Z,1.90
2023-03-26T10:05:08.289Z,1.00
2023-03-26T10:07:56.314Z,1.30
2023-03-26T10:10:49.159Z,1.00
2023-03-26T10:13:54.130Z,2.20
2023-03-26T10:16:29.881Z,4.65
2023-03-26T10:19:16.819Z,8.55
2023-03-26T10:22:11.150Z,3.58
2023-03-26T10:24:58.202Z,1.52
2023-03-26T10:27:49.477Z,2.45
2023-03-26T10:30:25.948Z,2.80
2023-03-26T10:32:58.064Z,4.15
2023-03-26T10:35:56.610Z,0.65
2023-03-26T10:39:02.941Z,2.20
2023-03-26T10:41:51.052Z,1.75
2023-03-26T10:44:24.969Z,2.47
2023-03-26T10:47:10.562Z,0.90
2023-03-26T10:49:50.122Z,0.80
2023-03-26T10:52:26.004Z,6.15
2023-03-26T10:55:23.591Z,1.05
2023-03-26T10:58:03.626Z,7.68
2023-03-26T11:00:40.277Z,1.08
2023-03-26T11:03:27.863Z,4.05
2023-03-26T11:06:08.142Z,1.05
2023-03-26T11:08:59.765Z,1.50
2023-03-26T11:11:34.035Z,1.48
2023-03-26T11:14:10.812Z,2.70
2023-03-26T11:16:45.704Z,0.70
2023-03-26T11:19:22.623Z,2.92
2023-03-26T11:21:56.790Z,0.70
2023-03-26T11:24:47.034Z,0.88
2023-03-26T11:27:22.625Z,0.88
2023-03-26T11:30:15.998Z,1.30
2023-03-26T11:32:46.758Z,2.05
2023-03-26T11:38:29.086Z,1.20
2023-03-26T11:40:59.122Z,2.67
2023-03-26T11:43:33.677Z,3.45
2023-03-26T11:46:03.731Z,1.50
2023-03-26T11:48:38.124Z,1.33
2023-03-26T11:51:12.047Z,1.52
2023-03-26T11:53:49.353Z,1.23
2023-03-26T11:57:05.148Z,2.28
2023-03-26T11:59:55.448Z,0.65
2023-03-26T12:02:36.149Z,1.20
2023-03-26T12:05:21.112Z,1.50
2023-03-26T12:07:54.701Z,2.53
2023-03-26T12:10:25.739Z,7.40
2023-03-26T12:12:56.624Z,9.18
2023-03-26T12:15:25.014Z,2.47
2023-03-26T12:17:56.647Z,5.60
2023-03-26T12:20:27.625Z,0.93
2023-03-26T12:23:03.521Z,3.95
2023-03-26T12:25:39.145Z,0.60
2023-03-26T12:28:16.294Z,0.60
2023-03-26T12:31:19.413Z,0.90
2023-03-26T12:34:35.001Z,1.30
2023-03-26T12:37:05.598Z,3.37
2023-03-26T12:40:11.790Z,2.10
2023-03-26T12:44:49.204Z,1.80
2023-03-26T12:47:54.133Z,3.22
2023-03-26T12:48:38.180Z,0.77
2023-03-26T12:51:23.834Z,0.98
2023-03-26T12:54:23.775Z,1.80
2023-03-26T12:57:13.696Z,0.68
2023-03-26T13:00:20.096Z,1.85
2023-03-26T13:02:59.140Z,2.20
2023-03-26T13:05:36.804Z,2.90
2023-03-26T13:08:15.939Z,0.80
2023-03-26T13:11:17.536Z,1.60
2023-03-26T13:13:56.447Z,2.65
2023-03-26T13:16:24.101Z,1.10
2023-03-26T13:18:57.954Z,1.25
2023-03-26T13:21:46.153Z,2.72
2023-03-26T13:24:38.697Z,2.37
2023-03-26T13:27:36.373Z,2.58
2023-03-26T13:30:31.433Z,1.90
2023-03-26T13:33:11.290Z,1.75
2023-03-26T13:36:23.163Z,1.47
2023-03-26T13:38:58.792Z,5.78
2023-03-26T13:41:34.221Z,0.60
2023-03-26T13:44:17.753Z,0.90
2023-03-26T13:46:48.960Z,1.67
2023-03-26T13:49:33.846Z,1.27
2023-03-26T13:52:10.920Z,1.10
2023-03-26T13:54:52.358Z,1.10
2023-03-26T14:01:08.253Z,1.58
2023-03-26T14:03:53.365Z,1.75
2023-03-26T14:06:42.508Z,1.87
2023-03-26T14:09:18.180Z,0.50
2023-03-26T14:11:58.270Z,0.45
2023-03-26T14:14:31.640Z,0.90
2023-03-26T14:17:05.403Z,1.00
2023-03-26T14:20:10.063Z,2.97
2023-03-26T14:22:53.018Z,0.60
2023-03-26T14:25:32.599Z,1.20
2023-03-26T14:28:24.418Z,0.40
2023-03-26T14:31:04.062Z,5.87
2023-03-26T14:33:34.242Z,0.70
2023-03-26T14:36:13.734Z,1.40
2023-03-26T14:38:48.108Z,1.17
2023-03-26T14:41:22.534Z,1.65
2023-03-26T14:44:21.138Z,1.60
2023-03-26T14:47:17.243Z,0.57
2023-03-26T14:53:45.075Z,1.08
2023-03-26T14:56:52.033Z,1.02
2023-03-26T14:59:47.872Z,1.12
2023-03-26T15:02:37.378Z,0.45
2023-03-26T15:05:27.184Z,0.52
2023-03-26T15:08:39.006Z,1.98
2023-03-26T15:11:47.263Z,1.12
2023-03-26T15:14:41.774Z,2.70
2023-03-26T15:18:00.487Z,0.60
2023-03-26T15:20:52.627Z,0.50
2023-03-26T15:23:38.863Z,0.98
2023-03-26T15:26:27.884Z,0.70
2023-03-26T15:29:43.190Z,1.12
2023-03-26T15:32:40.800Z,1.00
2023-03-26T15:35:37.113Z,0.82
2023-03-26T15:38:12.415Z,1.90
2023-03-26T15:41:05.285Z,0.73
2023-03-26T15:46:55.359Z,3.37
2023-03-26T15:49:23.041Z,1.50
2023-03-26T15:52:13.214Z,0.50
2023-03-26T15:55:19.116Z,0.60
2023-03-26T15:58:01.785Z,1.95
2023-03-26T16:00:34.739Z,1.37
2023-03-26T16:03:10.930Z,1.60
2023-03-26T16:06:23.911Z,0.80
2023-03-26T16:09:23.780Z,1.48
2023-03-26T16:11:58.816Z,1.90
2023-03-26T16:14:36.943Z,3.47
2023-03-26T16:17:08.278Z,1.65
2023-03-26T16:20:13.807Z,2.20
2023-03-26T16:22:55.658Z,1.55
2023-03-26T16:26:00.121Z,1.30
2023-03-26T16:28:49.115Z,1.95
2023-03-26T16:31:38.239Z,3.08
2023-03-26T16:34:09.996Z,4.18
2023-03-26T16:36:43.491Z,3.83
2023-03-26T16:39:23.148Z,2.87
2023-03-26T16:42:06.362Z,2.03
2023-03-26T16:44:44.249Z,1.98
2023-03-26T16:47:25.166Z,1.52
2023-03-26T16:53:33.190Z,2.72
2023-03-26T16:56:04.976Z,2.55
2023-03-26T16:58:40.193Z,4.40
2023-03-26T17:01:10.198Z,2.42
2023-03-26T17:06:30.097Z,2.15
2023-03-26T17:09:21.046Z,4.97
2023-03-26T17:12:00.153Z,4.03
2023-03-26T17:14:49.535Z,3.08
2023-03-26T17:17:39.729Z,4.07
2023-03-26T17:20:33.967Z,2.50
2023-03-26T17:23:29.836Z,3.83
2023-03-26T17:28:50.986Z,3.05
2023-03-26T17:31:31.989Z,3.40
2023-03-26T17:34:51.182Z,4.00
2023-03-26T17:37:22.610Z,4.80
2023-03-26T17:39:51.221Z,3.95
2023-03-26T17:42:27.736Z,5.28
2023-03-26T17:44:58.650Z,5.40
2023-03-26T17:47:40.347Z,4.15
2023-03-26T17:52:48.791Z,5.18
2023-03-26T17:55:22.041Z,4.30
2023-03-26T17:58:20.660Z,5.55
2023-03-26T18:01:14.796Z,4.57
2023-03-26T18:03:51.545Z,4.80
2023-03-26T18:06:55.798Z,4.62
2023-03-26T18:09:54.598Z,3.90
2023-03-26T18:13:12.665Z,4.68
2023-03-26T18:15:50.879Z,4.82
2023-03-26T18:18:40.667Z,4.72
2023-03-26T18:21:21.248Z,4.60
2023-03-26T18:23:51.383Z,6.18
2023-03-26T18:26:39.810Z,7.10
2023-03-26T18:29:28.920Z,5.85
2023-03-26T18:32:04.229Z,5.93
2023-03-26T18:34:36.691Z,5.82
2023-03-26T18:37:12.711Z,6.10
2023-03-26T18:39:43.764Z,7.97
2023-03-26T18:42:22.559Z,7.55
2023-03-26T18:44:59.706Z,9.55
2023-03-26T18:47:39.191Z,7.82
2023-03-26T18:50:40.242Z,7.90
2023-03-26T18:53:19.036Z,7.10
2023-03-26T18:55:55.214Z,7.32
2023-03-26T18:58:41.287Z,7.12
2023-03-26T19:01:20.248Z,7.90
2023-03-26T19:03:54.361Z,6.40
2023-03-26T19:06:24.025Z,6.80
2023-03-26T19:08:55.365Z,6.53
2023-03-26T19:11:26.860Z,6.20
2023-03-26T19:14:29.504Z,7.95
2023-03-26T19:17:05.447Z,6.40
2023-03-26T19:19:38.085Z,6.03
2023-03-26T19:22:09.455Z,7.07
2023-03-26T19:24:39.551Z,8.27
2023-03-26T19:27:10.259Z,10.57
2023-03-26T19:29:40.018Z,10.00
2023-03-26T19:32:22.602Z,11.05
2023-03-26T19:34:52.978Z,14.30
2023-03-26T19:37:28.648Z,13.55
2023-03-26T19:40:22.037Z,13.27
2023-03-26T19:42:51.310Z,12.82
2023-03-26T19:45:26.438Z,12.70
2023-03-26T19:48:07.753Z,8.73
2023-03-26T19:50:53.366Z,6.43
2023-03-26T19:53:34.310Z,7.93
2023-03-26T19:56:14.047Z,8.43
2023-03-26T19:58:43.671Z,8.30
2023-03-26T20:01:21.699Z,5.62
2023-03-26T20:04:06.929Z,6.07
2023-03-26T20:06:43.853Z,6.68
2023-03-26T20:09:16.577Z,5.30
2023-03-26T20:11:47.201Z,7.05
2023-03-26T20:14:26.448Z,7.00
2023-03-26T20:17:02.361Z,7.50
2023-03-26T20:19:31.319Z,5.72
2023-03-26T20:21:59.458Z,6.87
2023-03-26T20:24:27.835Z,6.40
2023-03-26T20:26:56.950Z,6.25
2023-03-26T20:29:25.248Z,5.95
2023-03-26T20:31:52.975Z,4.50
2023-03-26T20:34:25.056Z,4.45
2023-03-26T20:36:56.195Z,5.40
2023-03-26T20:39:25.674Z,6.35
2023-03-26T20:41:54.964Z,5.82
2023-03-26T20:44:27.343Z,6.12
2023-03-26T20:46:56.632Z,6.28
2023-03-26T20:49:25.684Z,6.07
2023-03-26T20:51:55.033Z,7.65
2023-03-26T20:54:25.267Z,7.53
2023-03-26T20:56:54.325Z,8.48
2023-03-26T20:59:26.901Z,8.68
2023-03-26T21:01:56.810Z,10.55
2023-03-26T21:04:25.074Z,8.90
2023-03-26T21:06:57.566Z,7.97
2023-03-26T21:09:35.482Z,4.43
2023-03-26T21:12:05.833Z,2.53
2023-03-26T21:14:44.342Z,2.37
2023-03-26T21:17:20.739Z,1.90
2023-03-26T21:19:49.295Z,2.45
2023-03-26T21:22:32.116Z,2.37
2023-03-26T21:25:15.404Z,2.90
2023-03-26T21:28:42.496Z,2.47
2023-03-26T21:31:18.651Z,2.35
2023-03-26T21:33:47.877Z,2.00
2023-03-26T21:36:18.101Z,2.22
2023-03-26T21:38:46.064Z,1.85
2023-03-26T21:41:27.063Z,2.08
2023-03-26T21:43:54.738Z,2.00
2023-03-26T21:46:22.228Z,1.20
2023-03-26T21:48:49.598Z,1.42
2023-03-26T21:51:21.227Z,1.33
2023-03-26T21:53:49.024Z,1.37
2023-03-26T21:56:35.597Z,1.12
2023-03-26T21:59:08.902Z,1.17
2023-03-26T22:01:47.834Z,1.35
2023-03-26T22:04:31.629Z,1.70
2023-03-26T22:07:10.269Z,1.90
2023-03-26T22:09:38.144Z,1.50
2023-03-26T22:12:05.856Z,1.25
2023-03-26T22:14:33.814Z,1.25
2023-03-26T22:17:01.236Z,1.10
2023-03-26T22:19:30.285Z,1.35
2023-03-26T22:22:01.494Z,1.42
2023-03-26T22:24:29.225Z,1.40
2023-03-26T22:26:56.650Z,0.70
2023-03-26T22:29:23.918Z,1.55
2023-03-26T22:31:51.632Z,1.08
2023-03-26T22:34:19.773Z,1.05
2023-03-26T22:36:46.942Z,1.30
2023-03-26T22:39:14.397Z,1.00
2023-03-26T22:41:41.698Z,1.15
2023-03-26T22:44:19.837Z,1.67
2023-03-26T22:46:51.488Z,1.20
2023-03-26T22:49:18.986Z,1.77
2023-03-26T22:51:50.393Z,1.15
2023-03-26T22:54:18.343Z,1.65
2023-03-26T22:56:45.900Z,1.62
2023-03-26T22:59:13.317Z,1.50
2023-03-26T23:01:41.559Z,1.62
2023-03-26T23:04:08.766Z,1.60
2023-03-26T23:06:35.916Z,1.15
2023-03-26T23:09:03.911Z,1.62
2023-03-26T23:11:31.204Z,1.80
2023-03-26T23:13:58.460Z,1.75
2023-03-26T23:16:26.574Z,1.45
2023-03-26T23:18:53.723Z,1.35
2023-03-26T23:21:21.846Z,1.60
2023-03-26T23:23:52.234Z,1.60
2023-03-26T23:26:19.605Z,1.40
2023-03-26T23:28:46.855Z,1.12
2023-03-26T23:31:14.368Z,1.40
2023-03-26T23:33:50.274Z,1.27
2023-03-26T23:36:19.329Z,1.27
2023-03-26T23:38:48.289Z,1.37
2023-03-26T23:41:17.653Z,0.95
2023-03-26T23:43:53.936Z,1.20
2023-03-26T23:46:30.951Z,1.23
2023-03-26T23:49:00.124Z,1.52
2023-03-26T23:51:31.930Z,1.30
2023-03-26T23:54:00.284Z,1.40
2023-03-26T23:56:27.830Z,1.48
2023-03-26T23:58:55.306Z,1.75
